Time;durP1;ratioP1;P1;durP2;ratioP2;P2;SDS_P1;SDS_P2;PMS_P1;PMS_P2;Temp;Humidity;BMP_temperature;BMP_pressure;BME280_temperature;BME280_humidity;BME280_pressure;Samples;Min_cycle;Max_cycle;Signal;HPM_P1;HPM_P2
2023/01/18 00:00:14;;;;;;;;;;;2.00;99.90;;;;;;5097690;28;19970;-70
2023/01/18 00:02:40;;;;;;;;;;;2.00;99.90;;;;;;5097488;28;20309;-69
2023/01/18 00:05:05;;;;;;;;;;;2.20;99.90;;;;;;5095651;28;19912;-67
2023/01/18 00:07:31;;;;;;;;;;;2.20;99.90;;;;;;5097366;28;19912;-70
2023/01/18 00:09:57;;;;;;;;;;;2.20;99.90;;;;;;5097260;28;19912;-67
2023/01/18 00:12:22;;;;;;;;;;;2.30;99.90;;;;;;5097513;28;20359;-69
2023/01/18 00:14:48;;;;;;;;;;;2.30;99.90;;;;;;5097610;28;20303;-68
2023/01/18 00:17:13;;;;;;;;;;;2.30;99.90;;;;;;5097465;28;20340;-70
2023/01/18 00:19:39;;;;;;;;;;;2.20;99.90;;;;;;5097241;28;19919;-70
2023/01/18 00:22:04;;;;;;;;;;;2.20;99.90;;;;;;5097130;28;19919;-67
2023/01/18 00:24:30;;;;;;;;;;;2.20;99.90;;;;;;5097046;28;20454;-70
2023/01/18 00:26:55;;;;;;;;;;;2.20;99.90;;;;;;5097086;28;19939;-68
2023/01/18 00:29:21;;;;;;;;;;;2.20;99.90;;;;;;5096711;28;19952;-70
2023/01/18 00:31:47;;;;;;;;;;;2.20;99.90;;;;;;5095983;28;20283;-67
2023/01/18 00:34:13;;;;;;;;;;;2.30;99.90;;;;;;5096595;28;20011;-67
2023/01/18 00:36:39;;;;;;;;;;;2.40;99.90;;;;;;5095309;28;20375;-66
2023/01/18 00:39:07;;;;;;;;;;;2.40;99.90;;;;;;5096680;28;19912;-69
2023/01/18 00:41:33;;;;;;;;;;;2.40;99.90;;;;;;5095362;28;19919;-70
2023/01/18 00:43:58;;;;;;;;;;;2.50;99.90;;;;;;5096455;28;20278;-69
2023/01/18 00:46:26;;;;;;;;;;;2.40;99.90;;;;;;5096174;28;19957;-67
2023/01/18 00:48:53;;;;;;;;;;;2.50;99.90;;;;;;5096184;28;19923;-67
2023/01/18 00:51:20;;;;;;;;;;;2.50;99.90;;;;;;5096370;28;19912;-66
2023/01/18 00:53:46;;;;;;;;;;;2.50;99.90;;;;;;5096303;28;19955;-69
2023/01/18 00:56:16;;;;;;;;;;;2.40;99.90;;;;;;5096032;28;19943;-70
2023/01/18 00:58:41;;;;;;;;;;;2.30;99.90;;;;;;5096316;28;20347;-70
2023/01/18 01:01:08;;;;;;;;;;;2.20;99.90;;;;;;5096396;28;19912;-66
2023/01/18 01:06:44;;;;;;;;;;;2.10;99.90;;;;;;5096543;28;19939;-67
2023/01/18 01:09:10;;;;;;;;;;;2.20;99.90;;;;;;5096693;28;19912;-70
2023/01/18 01:11:36;;;;;;;;;;;2.00;99.90;;;;;;5096373;28;19957;-69
2023/01/18 01:27:42;;;;;;;;;;;1.80;99.90;;;;;;5095651;28;19919;-67
2023/01/18 01:30:08;;;;;;;;;;;1.80;99.90;;;;;;5095331;28;19939;-67
2023/01/18 01:32:33;;;;;;;;;;;1.80;99.90;;;;;;5095782;28;19952;-70
2023/01/18 01:34:59;;;;;;;;;;;1.80;99.90;;;;;;5095113;28;19919;-67
2023/01/18 01:37:24;;;;;;;;;;;1.80;99.90;;;;;;5095728;28;19912;-69
2023/01/18 01:39:50;;;;;;;;;;;1.90;99.90;;;;;;5095612;28;19913;-70
2023/01/18 01:42:16;;;;;;;;;;;1.90;99.90;;;;;;5094169;28;19918;-67
2023/01/18 01:44:43;;;;;;;;;;;1.90;99.90;;;;;;5094290;28;19912;-70
2023/01/18 01:47:27;;;;;;;;;;;1.90;99.90;;;;;;5093728;28;19988;-70
2023/01/18 01:49:55;;;;;;;;;;;1.80;99.90;;;;;;5095291;28;19918;-68
2023/01/18 01:52:24;;;;;;;;;;;1.70;99.90;;;;;;5092915;28;19947;-67
2023/01/18 01:55:00;;;;;;;;;;;1.70;99.90;;;;;;5094686;28;20314;-66
2023/01/18 01:57:29;;;;;;;;;;;1.70;99.90;;;;;;5094621;28;19943;-67
2023/01/18 01:59:58;;;;;;;;;;;1.60;99.90;;;;;;5095265;28;19912;-70
2023/01/18 02:02:23;;;;;;;;;;;1.60;99.90;;;;;;5095047;28;19912;-70
2023/01/18 02:04:52;;;;;;;;;;;1.70;99.90;;;;;;5095352;28;19912;-67
2023/01/18 02:07:19;;;;;;;;;;;1.70;99.90;;;;;;5095142;28;19912;-67
2023/01/18 02:09:45;;;;;;;;;;;1.90;99.90;;;;;;5095011;28;19912;-66
2023/01/18 02:12:11;;;;;;;;;;;2.00;99.90;;;;;;5095086;28;20311;-66
2023/01/18 02:14:36;;;;;;;;;;;1.90;99.90;;;;;;5094969;28;19912;-67
2023/01/18 02:17:14;;;;;;;;;;;2.00;99.90;;;;;;5094945;28;20280;-68
2023/01/18 02:19:59;;;;;;;;;;;2.10;99.90;;;;;;5079741;28;19912;-67
2023/01/18 02:22:27;;;;;;;;;;;2.10;99.90;;;;;;5094744;28;20417;-69
2023/01/18 02:25:08;;;;;;;;;;;2.20;99.90;;;;;;5093258;28;19919;-69
2023/01/18 02:27:52;;;;;;;;;;;2.20;99.90;;;;;;5090614;28;19922;-67
2023/01/18 02:30:27;;;;;;;;;;;2.30;99.90;;;;;;5094870;28;19912;-69
2023/01/18 02:33:05;;;;;;;;;;;2.40;99.90;;;;;;5093266;28;19965;-68
2023/01/18 02:35:51;;;;;;;;;;;2.40;99.90;;;;;;5094537;28;19957;-69
2023/01/18 02:38:36;;;;;;;;;;;2.40;99.90;;;;;;5074601;28;20416;-68
2023/01/18 02:46:29;;;;;;;;;;;2.30;99.90;;;;;;5094394;28;19919;-70
2023/01/18 02:46:56;;;;;;;;;;;2.20;99.90;;;;;;5090809;28;19954;-68
2023/01/18 02:49:26;;;;;;;;;;;2.10;99.90;;;;;;5088529;28;19948;-69
2023/01/18 02:52:11;;;;;;;;;;;2.20;99.90;;;;;;5091976;28;19916;-70
2023/01/18 02:54:38;;;;;;;;;;;2.20;99.90;;;;;;5082585;28;19948;-66
2023/01/18 02:57:11;;;;;;;;;;;2.10;99.90;;;;;;5094375;28;19942;-67
2023/01/18 02:59:40;;;;;;;;;;;2.10;99.90;;;;;;5093002;28;19912;-68
2023/01/18 03:02:12;;;;;;;;;;;2.20;99.90;;;;;;5092364;28;19962;-67
2023/01/18 03:04:53;;;;;;;;;;;2.10;99.90;;;;;;5092174;28;20405;-66
2023/01/18 03:07:18;;;;;;;;;;;2.10;99.90;;;;;;5092862;28;19912;-67
2023/01/18 03:09:44;;;;;;;;;;;2.00;99.90;;;;;;5093992;28;19937;-66
2023/01/18 03:12:21;;;;;;;;;;;2.00;99.90;;;;;;5093074;28;20018;-69
2023/01/18 03:14:49;;;;;;;;;;;2.00;99.90;;;;;;5093594;28;19919;-67
2023/01/18 03:17:22;;;;;;;;;;;2.10;99.90;;;;;;5093829;28;19923;-67
2023/01/18 03:20:07;;;;;;;;;;;2.10;99.90;;;;;;5085706;28;20354;-69
2023/01/18 03:25:30;;;;;;;;;;;2.20;99.90;;;;;;5074041;28;19966;-69
2023/01/18 03:33:44;;;;;;;;;;;2.30;99.90;;;;;;5073944;28;19918;-68
2023/01/18 03:36:12;;;;;;;;;;;2.30;99.90;;;;;;5074007;28;19938;-68
2023/01/18 03:38:41;;;;;;;;;;;2.40;99.90;;;;;;5071245;28;19943;-67
2023/01/18 03:41:08;;;;;;;;;;;2.30;99.90;;;;;;5054842;28;20375;-67
2023/01/18 03:43:36;;;;;;;;;;;2.20;99.90;;;;;;5067241;28;19921;-68
2023/01/18 03:46:03;;;;;;;;;;;2.00;99.90;;;;;;5068696;28;20380;-69
2023/01/18 03:48:29;;;;;;;;;;;2.10;99.90;;;;;;5072209;28;19951;-68
2023/01/18 03:50:59;;;;;;;;;;;2.10;99.90;;;;;;5056726;28;20364;-68
2023/01/18 03:53:44;;;;;;;;;;;2.00;99.90;;;;;;5053631;28;19913;-68
2023/01/18 03:56:14;;;;;;;;;;;1.70;99.90;;;;;;5070798;28;19913;-67
2023/01/18 03:58:41;;;;;;;;;;;1.50;99.90;;;;;;5073316;28;19948;-67
2023/01/18 04:01:06;;;;;;;;;;;1.50;99.90;;;;;;5073393;28;19912;-68
2023/01/18 04:03:32;;;;;;;;;;;1.60;99.90;;;;;;5073125;28;20069;-68
2023/01/18 04:05:59;;;;;;;;;;;1.50;99.90;;;;;;5059515;28;19960;-67
2023/01/18 04:08:24;;;;;;;;;;;1.50;99.90;;;;;;5067067;28;19923;-67
2023/01/18 04:10:50;;;;;;;;;;;1.30;99.90;;;;;;5059250;28;19913;-67
2023/01/18 04:13:16;;;;;;;;;;;1.30;99.90;;;;;;5048060;28;19912;-67
2023/01/18 04:15:41;;;;;;;;;;;1.40;99.90;;;;;;5064757;28;19913;-66
2023/01/18 04:18:07;;;;;;;;;;;1.40;99.90;;;;;;5088426;28;19969;-66
2023/01/18 04:20:32;;;;;;;;;;;1.40;99.90;;;;;;5097205;28;19911;-67
2023/01/18 04:22:58;;;;;;;;;;;1.50;99.90;;;;;;5097440;28;19927;-67
2023/01/18 04:25:24;;;;;;;;;;;1.50;99.90;;;;;;5095632;28;19920;-68
2023/01/18 04:27:49;;;;;;;;;;;1.50;99.90;;;;;;5097254;28;19919;-67
2023/01/18 04:30:15;;;;;;;;;;;1.50;99.90;;;;;;5097208;28;20002;-66
2023/01/18 04:32:41;;;;;;;;;;;1.50;99.90;;;;;;5096976;28;19920;-67
2023/01/18 04:35:07;;;;;;;;;;;1.70;99.90;;;;;;5096540;28;19951;-67
2023/01/18 04:37:33;;;;;;;;;;;1.70;99.90;;;;;;5096616;28;20282;-67
2023/01/18 04:39:59;;;;;;;;;;;1.70;99.90;;;;;;5096642;28;19999;-67
2023/01/18 04:42:25;;;;;;;;;;;1.70;99.90;;;;;;5096793;28;19937;-67
2023/01/18 04:44:51;;;;;;;;;;;1.70;99.90;;;;;;5096128;28;19998;-67
2023/01/18 04:47:17;;;;;;;;;;;1.60;99.90;;;;;;5096908;28;20041;-67
2023/01/18 04:49:43;;;;;;;;;;;1.50;99.90;;;;;;5096328;28;19912;-67
2023/01/18 04:52:08;;;;;;;;;;;1.50;99.90;;;;;;5096508;28;19937;-67
2023/01/18 04:54:34;;;;;;;;;;;1.30;99.90;;;;;;5096620;28;19981;-68
2023/01/18 04:56:59;;;;;;;;;;;1.20;99.90;;;;;;5095693;28;19912;-67
2023/01/18 04:59:25;;;;;;;;;;;1.20;99.90;;;;;;5096651;28;19912;-67
2023/01/18 05:01:50;;;;;;;;;;;1.10;99.90;;;;;;5096553;28;20364;-67
2023/01/18 05:04:16;;;;;;;;;;;1.00;99.90;;;;;;5096366;28;20018;-66
2023/01/18 05:06:42;;;;;;;;;;;1.00;99.90;;;;;;5096505;28;20294;-68
2023/01/18 05:09:10;;;;;;;;;;;1.10;99.90;;;;;;5096289;28;20363;-67
2023/01/18 05:11:35;;;;;;;;;;;1.10;99.90;;;;;;5095542;28;19958;-66
2023/01/18 05:14:01;;;;;;;;;;;1.20;99.90;;;;;;5095990;28;19955;-68
2023/01/18 05:16:27;;;;;;;;;;;1.30;99.90;;;;;;5095887;28;19908;-67
2023/01/18 05:18:52;;;;;;;;;;;1.30;99.90;;;;;;5078117;28;20301;-68
2023/01/18 05:21:18;;;;;;;;;;;1.40;99.90;;;;;;5075951;28;19912;-68
2023/01/18 05:23:44;;;;;;;;;;;1.50;99.90;;;;;;5075487;28;20284;-68
2023/01/18 05:26:14;;;;;;;;;;;1.60;99.90;;;;;;5075740;28;20074;-67
2023/01/18 05:28:40;;;;;;;;;;;1.60;99.90;;;;;;5075748;28;19919;-67
2023/01/18 05:31:06;;;;;;;;;;;1.60;99.90;;;;;;5075502;28;19955;-67
2023/01/18 05:33:31;;;;;;;;;;;1.60;99.90;;;;;;5075068;28;19942;-67
2023/01/18 05:35:57;;;;;;;;;;;1.60;99.90;;;;;;5059121;28;19994;-67
2023/01/18 05:38:23;;;;;;;;;;;1.50;99.90;;;;;;5064087;28;21122;-67
2023/01/18 05:40:51;;;;;;;;;;;1.30;99.90;;;;;;5058516;28;19913;-68
2023/01/18 05:43:17;;;;;;;;;;;1.20;99.90;;;;;;5074966;28;19921;-68
2023/01/18 05:45:42;;;;;;;;;;;1.10;99.90;;;;;;5070528;28;20008;-68
2023/01/18 05:48:09;;;;;;;;;;;1.30;99.90;;;;;;5075091;28;19960;-67
2023/01/18 05:50:40;;;;;;;;;;;1.30;99.90;;;;;;5075202;28;19912;-67
2023/01/18 05:53:06;;;;;;;;;;;1.50;99.90;;;;;;5074757;28;19912;-67
2023/01/18 05:55:31;;;;;;;;;;;1.50;99.90;;;;;;5074016;28;20003;-68
2023/01/18 05:57:57;;;;;;;;;;;1.50;99.90;;;;;;5073933;28;19912;-67
2023/01/18 06:00:23;;;;;;;;;;;1.70;99.90;;;;;;5073666;28;20341;-68
2023/01/18 06:02:48;;;;;;;;;;;1.60;99.90;;;;;;5073820;28;19951;-66
2023/01/18 06:05:14;;;;;;;;;;;1.60;99.90;;;;;;5075198;28;19924;-66
2023/01/18 06:07:41;;;;;;;;;;;1.60;99.90;;;;;;5075150;28;20360;-66
2023/01/18 06:10:07;;;;;;;;;;;1.60;99.90;;;;;;5075125;28;19912;-66
2023/01/18 06:12:33;;;;;;;;;;;1.70;99.90;;;;;;5073407;28;19912;-68
2023/01/18 06:14:58;;;;;;;;;;;1.70;99.90;;;;;;5073367;28;20358;-66
2023/01/18 06:17:24;;;;;;;;;;;1.60;99.90;;;;;;5063210;28;19920;-67
2023/01/18 06:19:49;;;;;;;;;;;1.60;99.90;;;;;;5093480;28;20030;-67
2023/01/18 06:22:17;;;;;;;;;;;1.60;99.90;;;;;;5092833;28;20190;-67
2023/01/18 06:24:43;;;;;;;;;;;1.50;99.90;;;;;;5093842;28;19924;-68
2023/01/18 06:27:08;;;;;;;;;;;1.40;99.90;;;;;;5093775;28;19916;-67
2023/01/18 06:29:34;;;;;;;;;;;1.40;99.90;;;;;;5095279;28;19923;-68
2023/01/18 06:32:00;;;;;;;;;;;1.40;99.90;;;;;;5095075;28;19919;-66
2023/01/18 06:34:26;;;;;;;;;;;1.40;99.90;;;;;;5094870;28;19912;-66
2023/01/18 06:36:51;;;;;;;;;;;1.40;99.90;;;;;;5094980;28;19923;-67
2023/01/18 06:39:17;;;;;;;;;;;1.40;99.90;;;;;;5094258;28;19912;-68
2023/01/18 06:41:43;;;;;;;;;;;1.40;99.90;;;;;;5094633;28;19912;-68
2023/01/18 06:44:08;;;;;;;;;;;1.40;99.90;;;;;;5094946;28;19927;-67
2023/01/18 06:46:34;;;;;;;;;;;1.40;99.90;;;;;;5095132;28;19912;-68
2023/01/18 06:48:59;;;;;;;;;;;1.30;99.90;;;;;;5094746;28;19919;-66
2023/01/18 06:51:25;;;;;;;;;;;1.30;99.90;;;;;;5090059;28;20359;-67
2023/01/18 06:53:51;;;;;;;;;;;1.30;99.90;;;;;;5072374;28;19913;-67
2023/01/18 06:56:16;;;;;;;;;;;1.30;99.90;;;;;;5074377;28;20363;-67
2023/01/18 06:58:43;;;;;;;;;;;1.30;99.90;;;;;;5074548;28;19966;-67
2023/01/18 07:01:09;;;;;;;;;;;1.30;99.90;;;;;;5073065;28;19912;-67
2023/01/18 07:03:35;;;;;;;;;;;1.40;99.90;;;;;;5094397;28;20014;-68
2023/01/18 07:06:01;;;;;;;;;;;1.40;99.90;;;;;;5094667;28;20249;-68
2023/01/18 07:08:29;;;;;;;;;;;1.40;99.90;;;;;;5094672;28;19912;-67
2023/01/18 07:10:56;;;;;;;;;;;1.40;99.90;;;;;;5094617;28;20372;-66
2023/01/18 07:13:23;;;;;;;;;;;1.50;99.90;;;;;;5094656;28;20011;-68
2023/01/18 07:15:53;;;;;;;;;;;1.50;99.90;;;;;;5094522;28;19913;-68
2023/01/18 07:18:19;;;;;;;;;;;1.50;99.90;;;;;;5094015;28;19968;-68
2023/01/18 07:20:44;;;;;;;;;;;1.50;99.90;;;;;;5093857;28;19916;-67
2023/01/18 07:23:10;;;;;;;;;;;1.60;99.90;;;;;;5059356;28;19927;-68
2023/01/18 07:25:36;;;;;;;;;;;1.60;99.90;;;;;;5074138;28;19912;-68
2023/01/18 07:28:03;;;;;;;;;;;1.60;99.90;;;;;;5073506;28;19919;-67
2023/01/18 07:30:29;;;;;;;;;;;1.60;99.90;;;;;;5074064;28;19955;-67
2023/01/18 07:32:54;;;;;;;;;;;1.70;99.90;;;;;;5070107;28;20012;-68
2023/01/18 07:35:23;;;;;;;;;;;1.70;99.90;;;;;;5094341;28;19912;-68
2023/01/18 07:37:49;;;;;;;;;;;1.70;99.90;;;;;;5094393;28;20376;-68
2023/01/18 07:40:15;;;;;;;;;;;1.60;99.90;;;;;;5094259;28;19912;-67
2023/01/18 07:42:41;;;;;;;;;;;1.50;99.90;;;;;;5081828;28;20272;-68
2023/01/18 07:45:08;;;;;;;;;;;1.30;99.90;;;;;;5056051;28;19916;-68
2023/01/18 07:47:34;;;;;;;;;;;1.20;99.90;;;;;;5055916;28;19956;-68
2023/01/18 07:50:00;;;;;;;;;;;1.10;99.90;;;;;;5073960;28;19940;-68
2023/01/18 07:52:26;;;;;;;;;;;1.10;99.90;;;;;;5087034;28;20364;-67
2023/01/18 07:54:51;;;;;;;;;;;1.10;99.90;;;;;;5098091;28;19916;-67
2023/01/18 07:57:17;;;;;;;;;;;1.10;99.90;;;;;;5098135;28;19912;-68
2023/01/18 07:59:43;;;;;;;;;;;1.10;99.90;;;;;;5098181;28;20061;-68
2023/01/18 08:02:11;;;;;;;;;;;1.00;99.90;;;;;;5090389;28;19916;-67
2023/01/18 08:04:38;;;;;;;;;;;0.90;99.90;;;;;;5077603;28;19956;-67
2023/01/18 08:07:04;;;;;;;;;;;0.80;99.90;;;;;;5077773;28;19913;-67
2023/01/18 08:09:29;;;;;;;;;;;0.90;99.90;;;;;;5064440;28;19917;-66
2023/01/18 08:11:55;;;;;;;;;;;0.90;99.90;;;;;;5062944;28;20007;-68
2023/01/18 08:14:20;;;;;;;;;;;0.80;99.90;;;;;;5073058;28;20350;-67
2023/01/18 08:16:46;;;;;;;;;;;0.80;99.90;;;;;;5058723;28;19920;-67
2023/01/18 08:19:11;;;;;;;;;;;0.90;99.90;;;;;;5080103;28;19989;-67
2023/01/18 08:21:37;;;;;;;;;;;0.90;99.90;;;;;;5089619;28;20007;-67
2023/01/18 08:24:02;;;;;;;;;;;0.80;99.90;;;;;;5093235;28;19920;-67
2023/01/18 08:26:28;;;;;;;;;;;0.80;99.90;;;;;;5088334;28;20014;-66
2023/01/18 08:28:55;;;;;;;;;;;0.70;99.90;;;;;;5085355;28;19912;-68
2023/01/18 08:31:20;;;;;;;;;;;0.70;99.90;;;;;;5080501;28;19912;-68
2023/01/18 08:33:47;;;;;;;;;;;0.60;99.90;;;;;;5096457;28;20015;-67
2023/01/18 08:36:16;;;;;;;;;;;0.70;99.90;;;;;;5094542;28;20357;-67
2023/01/18 08:38:42;;;;;;;;;;;0.80;99.90;;;;;;5094926;28;20358;-68
2023/01/18 08:41:08;;;;;;;;;;;0.70;99.90;;;;;;5094502;28;19948;-67
2023/01/18 08:43:33;;;;;;;;;;;0.80;99.90;;;;;;5094564;28;20394;-68
2023/01/18 08:45:59;;;;;;;;;;;0.80;99.90;;;;;;5094736;28;19912;-69
2023/01/18 08:48:25;;;;;;;;;;;0.80;99.90;;;;;;5095206;28;19912;-65
2023/01/18 08:50:50;;;;;;;;;;;0.80;99.90;;;;;;5095000;28;19919;-69
2023/01/18 08:53:16;;;;;;;;;;;0.90;99.90;;;;;;5095357;28;19999;-68
2023/01/18 08:55:41;;;;;;;;;;;0.90;99.90;;;;;;5093596;28;19916;-68
2023/01/18 08:58:07;;;;;;;;;;;1.10;99.90;;;;;;5094614;28;19920;-68
2023/01/18 09:00:33;;;;;;;;;;;1.10;99.90;;;;;;5094694;28;20018;-68
2023/01/18 09:03:00;;;;;;;;;;;1.10;99.90;;;;;;5093923;28;20478;-66
2023/01/18 09:05:26;;;;;;;;;;;1.20;99.90;;;;;;5095080;28;19923;-69
2023/01/18 09:07:52;;;;;;;;;;;1.20;99.90;;;;;;5094729;28;20291;-69
2023/01/18 09:10:20;;;;;;;;;;;1.10;99.90;;;;;;5089712;28;20384;-68
2023/01/18 09:12:46;;;;;;;;;;;1.20;99.90;;;;;;5085234;28;19919;-70
2023/01/18 09:15:12;;;;;;;;;;;1.10;99.90;;;;;;5093804;28;19916;-70
2023/01/18 09:17:37;;;;;;;;;;;1.10;99.90;;;;;;5093610;28;19916;-68
2023/01/18 09:20:08;;;;;;;;;;;0.90;99.90;;;;;;5094521;28;19998;-71
2023/01/18 09:22:34;;;;;;;;;;;0.90;99.90;;;;;;5094087;28;19966;-67
2023/01/18 09:25:00;;;;;;;;;;;0.80;99.90;;;;;;5093981;28;19996;-68
2023/01/18 09:27:25;;;;;;;;;;;0.90;99.90;;;;;;5095960;28;19960;-69
2023/01/18 09:29:51;;;;;;;;;;;0.80;99.90;;;;;;5094108;28;20428;-68
2023/01/18 09:32:20;;;;;;;;;;;1.00;99.90;;;;;;5091951;28;19923;-68
2023/01/18 09:34:49;;;;;;;;;;;1.00;99.90;;;;;;5093688;28;19919;-68
2023/01/18 09:37:18;;;;;;;;;;;1.00;99.90;;;;;;5085330;28;20037;-68
2023/01/18 09:39:43;;;;;;;;;;;0.80;99.90;;;;;;5083696;28;19913;-69
2023/01/18 09:42:17;;;;;;;;;;;0.80;99.90;;;;;;5085632;28;19923;-68
2023/01/18 09:44:44;;;;;;;;;;;0.80;99.90;;;;;;5095765;28;19927;-66
2023/01/18 09:47:10;;;;;;;;;;;0.80;99.90;;;;;;5093415;28;19913;-66
2023/01/18 09:49:37;;;;;;;;;;;0.80;99.90;;;;;;5093392;28;19919;-68
2023/01/18 09:52:05;;;;;;;;;;;0.80;99.90;;;;;;5094622;28;19912;-68
2023/01/18 09:54:44;;;;;;;;;;;0.80;99.90;;;;;;5095190;28;19919;-67
2023/01/18 09:57:13;;;;;;;;;;;0.80;99.90;;;;;;5093184;28;19919;-67
2023/01/18 09:59:42;;;;;;;;;;;0.70;99.90;;;;;;5093525;28;19912;-68
2023/01/18 10:02:18;;;;;;;;;;;0.70;99.90;;;;;;5091230;28;19912;-69
2023/01/18 10:04:46;;;;;;;;;;;0.60;99.90;;;;;;5092986;28;19920;-68
2023/01/18 10:07:15;;;;;;;;;;;0.70;99.90;;;;;;5092297;28;20248;-68
2023/01/18 10:09:43;;;;;;;;;;;0.70;99.90;;;;;;5089534;28;19912;-67
2023/01/18 10:12:22;;;;;;;;;;;0.70;99.90;;;;;;5079942;28;20363;-68
2023/01/18 10:14:56;;;;;;;;;;;0.70;99.90;;;;;;5091331;28;19923;-66
2023/01/18 10:17:23;;;;;;;;;;;0.70;99.90;;;;;;5091577;28;19947;-67
2023/01/18 10:19:49;;;;;;;;;;;0.70;99.90;;;;;;5091938;28;19916;-70
2023/01/18 10:22:21;;;;;;;;;;;0.70;99.90;;;;;;5090083;28;20328;-71
2023/01/18 10:25:00;;;;;;;;;;;0.70;99.90;;;;;;5092840;28;20022;-71
2023/01/18 10:27:39;;;;;;;;;;;0.60;99.90;;;;;;5090763;28;19919;-69
2023/01/18 10:30:11;;;;;;;;;;;0.60;99.90;;;;;;5092261;28;19916;-70
2023/01/18 10:32:37;;;;;;;;;;;0.60;99.90;;;;;;5092213;28;19984;-70
2023/01/18 10:35:22;;;;;;;;;;;0.60;99.90;;;;;;5091404;28;20092;-69
2023/01/18 10:37:51;;;;;;;;;;;0.70;99.90;;;;;;5091155;28;19919;-72
2023/01/18 10:40:16;;;;;;;;;;;0.70;99.90;;;;;;5090770;28;20709;-73
2023/01/18 10:42:47;;;;;;;;;;;0.70;99.90;;;;;;5087742;28;19912;-73
2023/01/18 10:45:21;;;;;;;;;;;0.90;99.90;;;;;;5090157;28;20446;-74
2023/01/18 10:47:47;;;;;;;;;;;0.90;99.90;;;;;;5090212;28;19916;-73
2023/01/18 10:50:15;;;;;;;;;;;0.80;99.90;;;;;;5090910;28;19916;-70
2023/01/18 10:52:40;;;;;;;;;;;0.80;99.90;;;;;;5091353;28;19919;-71
2023/01/18 10:55:15;;;;;;;;;;;1.10;99.90;;;;;;5091561;28;20359;-70
2023/01/18 10:57:49;;;;;;;;;;;1.10;99.90;;;;;;5091974;28;19999;-70
2023/01/18 11:00:20;;;;;;;;;;;1.20;99.90;;;;;;5091428;28;19992;-71
2023/01/18 11:02:46;;;;;;;;;;;1.10;99.90;;;;;;5092179;28;20332;-71
2023/01/18 11:05:32;;;;;;;;;;;0.90;99.90;;;;;;5091862;28;19995;-71
2023/01/18 11:08:17;;;;;;;;;;;0.70;99.90;;;;;;5090691;28;19912;-71
2023/01/18 11:10:44;;;;;;;;;;;0.70;99.90;;;;;;5090052;28;19920;-70
2023/01/18 11:13:24;;;;;;;;;;;0.80;99.90;;;;;;5090334;28;19916;-69
2023/01/18 11:16:09;;;;;;;;;;;0.90;99.90;;;;;;5084432;28;19916;-69
2023/01/18 11:18:34;;;;;;;;;;;0.90;99.90;;;;;;5074875;28;19920;-69
2023/01/18 11:21:01;;;;;;;;;;;0.90;99.90;;;;;;5090953;28;20268;-69
2023/01/18 11:23:37;;;;;;;;;;;1.00;99.90;;;;;;5091625;28;19920;-68
2023/01/18 11:26:06;;;;;;;;;;;0.90;99.90;;;;;;5096012;28;20293;-67
2023/01/18 11:28:50;;;;;;;;;;;0.80;99.90;;;;;;5098743;28;20359;-66
2023/01/18 11:31:22;;;;;;;;;;;0.80;99.90;;;;;;5096429;28;19913;-67
2023/01/18 11:33:53;;;;;;;;;;;0.80;99.90;;;;;;5081139;28;19920;-68
2023/01/18 11:36:20;;;;;;;;;;;1.00;99.90;;;;;;5098315;28;20386;-66
2023/01/18 11:38:46;;;;;;;;;;;1.10;99.90;;;;;;5099111;28;20006;-67
2023/01/18 11:41:18;;;;;;;;;;;1.20;99.90;;;;;;5093801;28;19948;-67
2023/01/18 11:44:20;;;;;;;;;;;1.00;99.90;;;;;;5113118;28;20360;-66
2023/01/18 11:46:50;;;;;;;;;;;1.00;99.90;;;;;;5054994;28;19920;-67
2023/01/18 11:49:36;;;;;;;;;;;1.10;99.90;;;;;;5094905;28;20263;-68
2023/01/18 11:52:08;;;;;;;;;;;0.90;99.90;;;;;;5103674;28;19933;-69
2023/01/18 11:54:38;;;;;;;;;;;1.10;99.90;;;;;;5102404;28;19952;-68
2023/01/18 11:57:09;;;;;;;;;;;1.10;99.90;;;;;;5100417;28;19912;-69
2023/01/18 11:59:36;;;;;;;;;;;0.90;99.90;;;;;;5098449;28;19916;-68
2023/01/18 12:02:11;;;;;;;;;;;0.90;99.90;;;;;;5095446;28;19965;-69
2023/01/18 12:04:55;;;;;;;;;;;0.90;99.90;;;;;;5096317;28;19974;-66
2023/01/18 12:07:36;;;;;;;;;;;1.10;99.90;;;;;;5077736;28;19912;-70
2023/01/18 12:10:03;;;;;;;;;;;1.00;99.90;;;;;;5094267;28;19912;-70
2023/01/18 12:12:38;;;;;;;;;;;0.90;99.90;;;;;;5098619;28;19966;-70
2023/01/18 12:15:28;;;;;;;;;;;1.10;99.90;;;;;;5097814;28;20321;-70
2023/01/18 12:18:23;;;;;;;;;;;1.30;99.90;;;;;;5099007;28;19916;-71
2023/01/18 12:20:58;;;;;;;;;;;1.40;99.90;;;;;;5088355;28;19913;-71
2023/01/18 12:23:30;;;;;;;;;;;1.20;99.90;;;;;;5097683;28;19916;-70
2023/01/18 12:26:19;;;;;;;;;;;1.30;99.90;;;;;;5097482;28;20030;-67
2023/01/18 12:28:50;;;;;;;;;;;1.20;99.90;;;;;;5097198;28;20002;-70
2023/01/18 12:31:35;;;;;;;;;;;1.10;99.90;;;;;;5096601;28;19916;-70
2023/01/18 12:34:14;;;;;;;;;;;1.20;99.90;;;;;;5097304;28;19957;-70
2023/01/18 12:36:50;;;;;;;;;;;1.10;99.90;;;;;;5095981;28;19919;-70
2023/01/18 12:39:47;;;;;;;;;;;1.10;99.90;;;;;;5093055;28;20007;-70
2023/01/18 12:42:34;;;;;;;;;;;1.30;99.90;;;;;;5094917;28;20355;-70
2023/01/18 12:45:05;;;;;;;;;;;1.40;99.90;;;;;;5086653;28;20441;-70
2023/01/18 12:47:35;;;;;;;;;;;1.40;99.90;;;;;;5094858;28;20368;-70
2023/01/18 12:50:04;;;;;;;;;;;1.30;99.90;;;;;;5093676;28;19912;-70
2023/01/18 12:52:32;;;;;;;;;;;1.50;99.90;;;;;;5095090;28;19939;-70
2023/01/18 12:55:00;;;;;;;;;;;1.30;99.90;;;;;;5094304;28;20346;-71
2023/01/18 12:57:28;;;;;;;;;;;1.20;99.90;;;;;;5095561;28;19951;-70
2023/01/18 13:00:18;;;;;;;;;;;0.90;99.90;;;;;;5094057;28;19995;-70
2023/01/18 13:02:47;;;;;;;;;;;0.80;99.90;;;;;;5093787;28;20343;-69
2023/01/18 13:05:22;;;;;;;;;;;0.90;99.90;;;;;;5095104;28;20015;-70
2023/01/18 13:07:55;;;;;;;;;;;1.10;99.90;;;;;;5093925;28;19920;-70
2023/01/18 13:10:22;;;;;;;;;;;1.20;99.90;;;;;;5094183;28;19919;-69
2023/01/18 13:12:48;;;;;;;;;;;1.20;99.90;;;;;;5094183;28;19912;-69
2023/01/18 13:15:22;;;;;;;;;;;1.10;99.90;;;;;;5093374;28;19948;-69
2023/01/18 13:17:51;;;;;;;;;;;0.90;99.90;;;;;;5092819;28;19960;-69
2023/01/18 13:20:18;;;;;;;;;;;0.80;99.90;;;;;;5093715;28;19916;-70
2023/01/18 13:22:53;;;;;;;;;;;0.80;99.90;;;;;;5093810;28;19916;-71
2023/01/18 13:25:18;;;;;;;;;;;0.80;99.90;;;;;;5092660;28;19924;-70
2023/01/18 13:27:58;;;;;;;;;;;0.90;99.90;;;;;;5093912;28;20276;-71
2023/01/18 13:30:24;;;;;;;;;;;0.60;99.90;;;;;;5093877;28;20053;-70
2023/01/18 13:32:53;;;;;;;;;;;0.60;99.90;;;;;;5092922;28;19987;-70
2023/01/18 13:35:27;;;;;;;;;;;0.80;99.90;;;;;;5088165;28;20082;-70
2023/01/18 13:37:54;;;;;;;;;;;1.00;99.90;;;;;;5081440;28;19912;-69
2023/01/18 13:40:24;;;;;;;;;;;0.80;99.90;;;;;;5074000;28;19912;-69
2023/01/18 13:42:50;;;;;;;;;;;1.00;99.90;;;;;;5073852;28;19912;-70
2023/01/18 13:45:20;;;;;;;;;;;1.00;99.90;;;;;;5085592;28;19979;-66
2023/01/18 13:47:50;;;;;;;;;;;1.10;99.90;;;;;;5093681;28;19913;-67
2023/01/18 13:50:39;;;;;;;;;;;1.00;99.90;;;;;;5091972;28;20279;-67
2023/01/18 13:53:19;;;;;;;;;;;0.90;99.90;;;;;;5092502;28;20355;-67
2023/01/18 13:55:46;;;;;;;;;;;0.90;99.90;;;;;;5093935;28;19912;-67
2023/01/18 13:58:28;;;;;;;;;;;0.80;99.90;;;;;;5093597;28;19912;-67
2023/01/18 14:00:57;;;;;;;;;;;0.70;99.90;;;;;;5093673;28;20352;-67
2023/01/18 14:03:27;;;;;;;;;;;0.70;99.90;;;;;;5094156;28;20009;-67
2023/01/18 14:05:57;;;;;;;;;;;0.60;99.90;;;;;;5091880;28;19912;-67
2023/01/18 14:08:31;;;;;;;;;;;0.70;99.90;;;;;;5093802;28;19919;-67
2023/01/18 14:11:07;;;;;;;;;;;0.70;99.90;;;;;;5092473;28;19916;-67
2023/01/18 14:13:46;;;;;;;;;;;0.60;99.90;;;;;;5093772;28;19919;-67
2023/01/18 14:16:15;;;;;;;;;;;0.60;99.90;;;;;;5072746;28;19919;-67
2023/01/18 14:18:47;;;;;;;;;;;0.60;99.90;;;;;;5056820;28;19995;-68
2023/01/18 14:21:22;;;;;;;;;;;0.60;99.90;;;;;;5062371;28;20349;-67
2023/01/18 14:23:55;;;;;;;;;;;0.60;99.90;;;;;;5072837;28;19923;-67
2023/01/18 14:26:21;;;;;;;;;;;0.70;99.90;;;;;;5072105;28;20379;-67
2023/01/18 14:28:52;;;;;;;;;;;0.80;99.90;;;;;;5055131;28;20007;-69
2023/01/18 14:31:19;;;;;;;;;;;0.60;99.90;;;;;;5072931;28;19920;-67
2023/01/18 14:33:45;;;;;;;;;;;0.70;99.90;;;;;;5074477;28;19913;-67
2023/01/18 14:36:23;;;;;;;;;;;0.70;99.90;;;;;;5074298;28;19912;-67
2023/01/18 14:39:11;;;;;;;;;;;0.50;99.90;;;;;;5056568;28;19931;-67
2023/01/18 14:42:13;;;;;;;;;;;0.70;99.90;;;;;;5062560;28;19959;-68
2023/01/18 14:44:42;;;;;;;;;;;0.60;99.90;;;;;;5068710;28;19928;-68
2023/01/18 14:47:18;;;;;;;;;;;0.70;99.90;;;;;;5071939;28;19952;-67
2023/01/18 14:49:46;;;;;;;;;;;0.70;99.90;;;;;;5072282;28;19916;-66
2023/01/18 14:52:15;;;;;;;;;;;0.60;99.90;;;;;;5072171;28;19916;-71
2023/01/18 14:54:50;;;;;;;;;;;0.70;99.90;;;;;;5072736;28;19921;-71
2023/01/18 14:57:16;;;;;;;;;;;1.20;99.90;;;;;;5054472;28;19932;-70
2023/01/18 14:59:49;;;;;;;;;;;0.90;99.90;;;;;;5072911;28;19912;-71
2023/01/18 15:02:16;;;;;;;;;;;1.00;99.90;;;;;;5057356;28;20334;-72
2023/01/18 15:04:46;;;;;;;;;;;0.90;99.90;;;;;;5044119;28;19924;-71
2023/01/18 15:07:16;;;;;;;;;;;0.90;99.90;;;;;;5067758;28;19965;-71
2023/01/18 15:09:43;;;;;;;;;;;0.80;99.90;;;;;;5074311;28;19912;-71
2023/01/18 15:12:11;;;;;;;;;;;0.80;99.90;;;;;;5073043;28;19917;-71